Time;durP1;ratioP1;P1;durP2;ratioP2;P2;SDS_P1;SDS_P2;PMS_P1;PMS_P2;Temp;Humidity;BMP_temperature;BMP_pressure;BME280_temperature;BME280_humidity;BME280_pressure;Samples;Min_cycle;Max_cycle;Signal;HPM_P1;HPM_P2
2022/09/25 00:00:49;;;;;;;5.30;2.40;;;8.60;99.90;;;;;;5034908;28;20553;-52
2022/09/25 00:03:17;;;;;;;5.75;2.95;;;8.50;99.90;;;;;;5044501;28;20127;-51
2022/09/25 00:05:45;;;;;;;5.15;2.90;;;8.50;99.90;;;;;;5053244;28;20056;-47
2022/09/25 00:08:12;;;;;;;9.23;2.80;;;8.50;99.90;;;;;;5060706;28;20052;-48
2022/09/25 00:10:48;;;;;;;6.55;2.78;;;8.50;99.90;;;;;;5054266;28;20058;-49
2022/09/25 00:13:16;;;;;;;6.60;2.58;;;8.40;99.90;;;;;;5044894;28;20070;-50
2022/09/25 00:15:55;;;;;;;5.88;2.33;;;8.50;99.90;;;;;;5062466;28;20131;-50
2022/09/25 00:21:13;;;;;;;6.88;2.88;;;8.40;99.90;;;;;;5062615;28;20064;-49
2022/09/25 00:23:42;;;;;;;7.40;2.20;;;8.40;99.90;;;;;;5026621;28;20060;-48
2022/09/25 00:26:08;;;;;;;6.35;2.70;;;8.40;99.90;;;;;;5041620;28;20144;-50
2022/09/25 00:28:36;;;;;;;11.52;3.35;;;8.40;99.90;;;;;;5052586;28;20040;-48
2022/09/25 00:31:06;;;;;;;7.43;2.80;;;8.40;99.90;;;;;;5055122;28;20059;-51
2022/09/25 00:33:33;;;;;;;6.40;2.78;;;8.40;99.90;;;;;;5059933;28;20090;-47
2022/09/25 00:36:05;;;;;;;6.00;3.10;;;8.50;99.90;;;;;;5047304;28;20556;-47
2022/09/25 00:38:33;;;;;;;9.60;2.75;;;8.40;99.90;;;;;;5048858;28;20159;-48
2022/09/25 00:41:00;;;;;;;6.60;2.92;;;8.30;99.90;;;;;;5047785;28;20048;-48
2022/09/25 00:43:59;;;;;;;8.27;2.88;;;8.40;99.90;;;;;;5048900;28;20065;-51
2022/09/25 00:46:37;;;;;;;8.80;2.75;;;8.40;99.90;;;;;;4953870;28;20522;-49
2022/09/25 00:49:13;;;;;;;6.55;3.47;;;8.40;99.90;;;;;;4952978;28;20592;-50
2022/09/25 00:51:46;;;;;;;5.90;2.80;;;8.40;99.90;;;;;;4954199;28;20113;-53
2022/09/25 00:54:35;;;;;;;5.15;2.40;;;8.50;99.90;;;;;;4952319;28;20051;-50
2022/09/25 00:57:07;;;;;;;7.25;2.95;;;8.40;99.90;;;;;;4948963;28;20051;-50
2022/09/25 00:59:43;;;;;;;7.53;2.90;;;8.40;99.90;;;;;;4952022;28;20107;-51
2022/09/25 01:02:16;;;;;;;8.32;2.85;;;8.40;99.90;;;;;;4947664;28;20063;-49
2022/09/25 01:04:46;;;;;;;7.20;2.80;;;8.40;99.90;;;;;;4954837;28;20450;-47
2022/09/25 01:07:13;;;;;;;10.82;3.35;;;8.30;99.90;;;;;;4938843;28;20066;-49
2022/09/25 01:09:44;;;;;;;7.97;2.50;;;8.30;99.90;;;;;;4955771;28;21056;-48
2022/09/25 01:12:10;;;;;;;8.27;2.90;;;8.30;99.90;;;;;;4943850;28;20073;-48
2022/09/25 01:14:37;;;;;;;12.40;3.53;;;8.30;99.90;;;;;;4958897;28;20047;-48
2022/09/25 01:17:29;;;;;;;9.50;3.00;;;8.40;99.90;;;;;;4958797;28;20057;-48
2022/09/25 01:20:31;;;;;;;8.82;3.10;;;8.40;99.90;;;;;;4951430;28;20063;-52
2022/09/25 01:23:26;;;;;;;8.18;3.03;;;8.40;99.90;;;;;;5026145;28;20469;-50
2022/09/25 01:26:30;;;;;;;8.20;2.92;;;8.40;99.90;;;;;;5054614;28;20048;-50
2022/09/25 01:29:10;;;;;;;9.82;3.60;;;8.30;99.90;;;;;;5055174;28;20530;-50
2022/09/25 01:31:48;;;;;;;11.50;3.17;;;8.30;99.90;;;;;;5054767;28;20061;-51
2022/09/25 01:34:23;;;;;;;9.32;3.35;;;8.30;99.90;;;;;;5050232;28;20478;-53
2022/09/25 01:36:59;;;;;;;7.95;3.22;;;8.30;99.90;;;;;;5051127;28;20056;-48
2022/09/25 01:39:40;;;;;;;13.43;3.40;;;8.30;99.90;;;;;;5041110;28;20117;-49
2022/09/25 01:42:29;;;;;;;12.68;3.50;;;8.20;99.90;;;;;;5053255;28;20056;-50
2022/09/25 01:45:22;;;;;;;9.80;4.22;;;8.30;99.90;;;;;;5061007;28;20055;-50
2022/09/25 01:47:51;;;;;;;12.32;4.25;;;8.20;99.90;;;;;;5049564;28;20574;-48
2022/09/25 01:50:35;;;;;;;9.48;3.78;;;8.20;99.90;;;;;;5057659;28;20116;-51
2022/09/25 01:53:06;;;;;;;8.23;4.13;;;8.30;99.90;;;;;;5032794;28;20385;-52
2022/09/25 01:55:42;;;;;;;10.10;4.10;;;8.30;99.90;;;;;;5060382;28;20127;-49
2022/09/25 01:58:21;;;;;;;8.73;3.97;;;8.30;99.90;;;;;;5050636;28;20089;-50
2022/09/25 02:00:54;;;;;;;7.15;3.50;;;8.40;99.90;;;;;;5051367;28;20126;-50
2022/09/25 02:03:25;;;;;;;10.27;3.70;;;8.50;99.90;;;;;;5057020;28;20060;-52
2022/09/25 02:05:58;;;;;;;10.77;4.10;;;8.60;99.90;;;;;;5052121;28;20063;-54
2022/09/25 02:08:34;;;;;;;10.50;3.53;;;8.60;99.90;;;;;;5054242;28;20103;-51
2022/09/25 02:11:03;;;;;;;13.18;3.42;;;8.60;99.90;;;;;;5060998;28;20122;-49
2022/09/25 02:13:42;;;;;;;8.75;3.55;;;8.60;99.90;;;;;;5055215;28;20406;-49
2022/09/25 02:16:25;;;;;;;12.80;3.75;;;8.70;99.90;;;;;;5030741;28;20110;-48
2022/09/25 02:21:49;;;;;;;6.30;3.30;;;8.90;99.90;;;;;;5053939;28;20596;-51
2022/09/25 02:24:32;;;;;;;12.50;3.40;;;9.00;99.90;;;;;;5050865;28;20059;-49
2022/09/25 02:26:58;;;;;;;11.02;3.38;;;9.00;99.90;;;;;;5053908;28;20091;-49
2022/09/25 02:29:24;;;;;;;10.82;3.22;;;9.10;99.90;;;;;;5053313;28;20037;-46
2022/09/25 02:31:56;;;;;;;8.52;3.20;;;9.30;99.90;;;;;;5058162;28;20076;-47
2022/09/25 02:34:22;;;;;;;11.25;3.30;;;9.40;99.90;;;;;;5053193;28;20044;-47
2022/09/25 02:36:49;;;;;;;8.88;3.30;;;9.40;99.90;;;;;;5053142;28;20047;-47
2022/09/25 02:39:18;;;;;;;13.50;3.35;;;9.60;99.90;;;;;;5058445;28;20059;-47
2022/09/25 02:42:00;;;;;;;11.63;3.42;;;9.50;99.90;;;;;;5057930;28;20700;-52
2022/09/25 02:44:45;;;;;;;10.98;3.15;;;9.60;99.90;;;;;;5054353;28;20082;-48
2022/09/25 02:47:31;;;;;;;13.27;3.33;;;9.50;99.90;;;;;;5039309;28;20115;-47
2022/09/25 02:50:07;;;;;;;10.13;2.90;;;9.40;99.90;;;;;;5032576;28;20487;-48
2022/09/25 02:52:43;;;;;;;11.43;3.22;;;9.40;99.90;;;;;;5056859;28;20128;-51
2022/09/25 02:55:32;;;;;;;8.93;2.75;;;9.30;99.90;;;;;;5058146;28;20120;-52
2022/09/25 02:58:11;;;;;;;8.95;2.75;;;9.30;99.90;;;;;;5063953;28;20190;-49
2022/09/25 03:00:40;;;;;;;10.00;2.97;;;9.20;99.90;;;;;;5062979;28;20418;-51
2022/09/25 03:03:10;;;;;;;8.80;2.92;;;9.20;99.90;;;;;;5052508;28;20052;-49
2022/09/25 03:05:37;;;;;;;7.57;2.53;;;9.20;99.90;;;;;;5034980;28;20063;-50
2022/09/25 03:10:56;;;;;;;8.43;2.60;;;9.10;99.90;;;;;;5062166;28;20092;-50
2022/09/25 03:13:32;;;;;;;11.65;2.63;;;9.10;99.90;;;;;;5050540;28;20080;-50
2022/09/25 03:16:22;;;;;;;5.10;2.22;;;9.00;99.90;;;;;;5049155;28;20044;-50
2022/09/25 03:18:48;;;;;;;7.72;2.80;;;8.80;99.90;;;;;;5055593;28;20053;-49
2022/09/25 03:21:14;;;;;;;5.80;2.33;;;8.80;99.90;;;;;;5061421;28;20604;-50
2022/09/25 03:23:40;;;;;;;5.35;2.38;;;8.70;99.90;;;;;;5054980;28;20064;-50
2022/09/25 03:26:06;;;;;;;4.85;2.63;;;8.60;99.90;;;;;;5061224;28;20045;-50
2022/09/25 03:28:33;;;;;;;10.05;2.20;;;8.50;99.90;;;;;;5055485;28;20044;-51
2022/09/25 03:31:05;;;;;;;5.80;2.47;;;8.50;99.90;;;;;;5059652;28;20123;-49
2022/09/25 03:33:36;;;;;;;7.10;2.30;;;8.40;99.90;;;;;;5058211;28;20052;-48
2022/09/25 03:36:12;;;;;;;6.00;2.17;;;8.40;99.90;;;;;;5049177;28;20136;-50
2022/09/25 03:38:40;;;;;;;9.45;2.40;;;8.30;99.90;;;;;;5049088;28;20057;-47
2022/09/25 03:41:07;;;;;;;6.32;2.60;;;8.40;99.90;;;;;;5057474;28;20132;-47
2022/09/25 03:43:41;;;;;;;11.48;2.80;;;8.40;99.90;;;;;;5053480;28;20480;-51
2022/09/25 03:46:10;;;;;;;8.48;2.85;;;8.60;99.90;;;;;;5036863;28;20045;-50
2022/09/25 03:48:37;;;;;;;7.20;2.80;;;8.70;99.90;;;;;;5051179;28;20053;-51
2022/09/25 03:51:03;;;;;;;10.32;3.78;;;8.70;99.90;;;;;;5057896;28;20084;-48
2022/09/25 03:53:32;;;;;;;6.95;2.97;;;8.80;99.90;;;;;;5036768;28;20553;-47
2022/09/25 03:56:01;;;;;;;6.40;2.70;;;8.90;99.90;;;;;;5052592;28;20633;-51
2022/09/25 03:58:28;;;;;;;10.30;2.83;;;8.90;99.90;;;;;;5057548;28;20136;-47
2022/09/25 04:00:56;;;;;;;6.53;2.53;;;9.00;99.90;;;;;;5038693;28;20511;-51
2022/09/25 04:03:27;;;;;;;11.13;2.22;;;9.10;99.90;;;;;;5053267;28;20090;-49
2022/09/25 04:05:57;;;;;;;6.40;1.48;;;9.20;99.90;;;;;;5053924;28;20058;-50
2022/09/25 04:08:26;;;;;;;6.18;1.45;;;9.40;99.90;;;;;;5055299;28;20049;-50
2022/09/25 04:10:58;;;;;;;4.75;1.38;;;9.50;99.90;;;;;;5060287;28;20040;-51
2022/09/25 04:13:28;;;;;;;4.47;1.77;;;9.70;99.90;;;;;;5062897;28;20048;-47
2022/09/25 04:15:55;;;;;;;7.50;1.35;;;9.70;99.90;;;;;;5050729;28;20097;-50
2022/09/25 04:18:22;;;;;;;6.55;1.25;;;9.70;99.90;;;;;;5035123;28;20055;-52
2022/09/25 04:20:48;;;;;;;5.57;1.55;;;9.70;99.90;;;;;;5050424;28;20144;-48
2022/09/25 04:23:14;;;;;;;6.03;1.38;;;9.70;99.90;;;;;;5055639;28;20080;-48
2022/09/25 04:25:40;;;;;;;5.90;2.00;;;9.70;99.90;;;;;;5036515;28;20132;-49
2022/09/25 04:28:06;;;;;;;4.22;1.38;;;9.70;99.90;;;;;;5034286;28;20059;-49
2022/09/25 04:30:33;;;;;;;6.05;1.30;;;9.70;99.90;;;;;;5055015;28;20475;-49
2022/09/25 04:35:46;;;;;;;3.13;1.50;;;9.70;99.90;;;;;;5049918;28;20084;-52
2022/09/25 04:38:12;;;;;;;6.10;2.35;;;9.70;99.90;;;;;;5057477;28;20060;-52
2022/09/25 04:40:39;;;;;;;5.38;1.95;;;9.60;99.90;;;;;;5050133;28;20056;-52
2022/09/25 04:43:06;;;;;;;2.72;1.25;;;9.60;99.90;;;;;;5058433;28;20048;-49
2022/09/25 04:45:34;;;;;;;2.47;1.30;;;9.50;99.90;;;;;;5042138;28;20044;-48
2022/09/25 04:48:00;;;;;;;5.05;1.25;;;9.50;99.90;;;;;;5055722;28;20113;-46
2022/09/25 04:50:27;;;;;;;4.75;1.45;;;9.60;99.90;;;;;;5041121;28;20056;-46
2022/09/25 04:52:55;;;;;;;5.28;1.55;;;9.50;99.90;;;;;;5059791;28;20222;-47
2022/09/25 04:55:23;;;;;;;6.60;1.73;;;9.60;99.90;;;;;;5059734;28;20048;-48
2022/09/25 04:58:01;;;;;;;6.18;2.85;;;9.50;99.90;;;;;;5049882;28;20044;-46
2022/09/25 05:00:30;;;;;;;4.93;1.77;;;9.40;99.90;;;;;;5045272;28;20130;-48
2022/09/25 05:02:56;;;;;;;3.38;1.17;;;9.40;99.90;;;;;;5046447;28;20052;-47
2022/09/25 05:05:26;;;;;;;6.15;1.30;;;9.40;99.90;;;;;;5052011;28;20052;-47
2022/09/25 05:07:57;;;;;;;5.78;1.40;;;9.40;99.90;;;;;;5058981;28;20461;-47
2022/09/25 05:10:28;;;;;;;3.55;1.73;;;9.30;99.90;;;;;;5056783;28;20055;-50
2022/09/25 05:12:56;;;;;;;6.57;1.33;;;9.30;99.90;;;;;;5052764;28;20052;-47
2022/09/25 05:15:22;;;;;;;4.97;1.30;;;9.40;99.90;;;;;;5058223;28;20581;-47
2022/09/25 05:17:48;;;;;;;5.63;1.58;;;9.40;99.90;;;;;;5058765;28;20044;-48
2022/09/25 05:20:13;;;;;;;4.15;1.48;;;9.40;99.90;;;;;;5045215;28;20149;-48
2022/09/25 05:22:39;;;;;;;7.45;2.03;;;9.60;99.90;;;;;;5055128;28;20398;-48
2022/09/25 05:25:05;;;;;;;8.95;2.00;;;9.60;99.90;;;;;;5030071;28;20402;-50
2022/09/25 05:27:33;;;;;;;10.18;2.38;;;9.60;99.90;;;;;;5056507;28;20585;-48
2022/09/25 05:29:59;;;;;;;7.43;2.10;;;9.70;99.90;;;;;;5057822;28;20455;-48
2022/09/25 05:32:26;;;;;;;9.57;2.00;;;9.70;99.90;;;;;;5058134;28;20119;-47
2022/09/25 05:34:52;;;;;;;4.88;1.95;;;9.90;99.90;;;;;;5052210;28;20052;-46
2022/09/25 05:37:18;;;;;;;7.05;1.92;;;9.90;99.90;;;;;;5047465;28;20153;-48
2022/09/25 05:39:46;;;;;;;7.00;2.17;;;10.00;99.90;;;;;;5048441;28;20462;-48
2022/09/25 05:42:14;;;;;;;6.72;1.83;;;10.10;99.90;;;;;;5055029;28;20510;-48
2022/09/25 05:44:40;;;;;;;7.53;2.13;;;10.10;99.90;;;;;;5056433;28;20052;-48
2022/09/25 05:47:06;;;;;;;5.13;2.22;;;10.20;99.90;;;;;;5047823;28;20048;-51
2022/09/25 05:49:32;;;;;;;6.70;2.10;;;10.20;99.90;;;;;;5056474;28;20674;-47
2022/09/25 05:51:58;;;;;;;7.00;1.90;;;10.30;99.90;;;;;;5053953;28;20044;-50
2022/09/25 05:54:26;;;;;;;10.05;2.28;;;10.30;99.90;;;;;;5057669;28;20075;-49
2022/09/25 05:56:53;;;;;;;6.25;2.33;;;10.40;99.90;;;;;;5059285;28;20044;-52
2022/09/25 05:59:19;;;;;;;6.30;2.15;;;10.40;99.90;;;;;;5050585;28;20063;-52
2022/09/25 06:01:44;;;;;;;10.45;2.10;;;10.40;99.90;;;;;;5048887;28;20987;-51
2022/09/25 06:04:10;;;;;;;10.48;2.58;;;10.40;99.90;;;;;;5047366;28;20574;-48
2022/09/25 06:06:35;;;;;;;7.20;2.17;;;10.60;99.90;;;;;;5050417;28;20459;-48
2022/09/25 06:09:01;;;;;;;6.18;2.20;;;10.90;99.90;;;;;;5050778;28;20044;-49
2022/09/25 06:11:30;;;;;;;4.65;1.40;;;11.50;99.90;;;;;;5054183;28;20045;-50
2022/09/25 06:13:56;;;;;;;6.68;1.33;;;12.00;99.90;;;;;;5036150;28;20586;-48
2022/09/25 06:16:22;;;;;;;4.35;1.38;;;12.10;99.90;;;;;;5045596;28;20349;-48
2022/09/25 06:18:48;;;;;;;5.53;2.05;;;12.00;99.90;;;;;;5049696;28;20060;-50
2022/09/25 06:21:13;;;;;;;7.97;1.58;;;12.10;99.90;;;;;;5045867;28;20077;-49
2022/09/25 06:23:42;;;;;;;4.38;2.13;;;12.50;99.90;;;;;;5055568;28;20044;-48
2022/09/25 06:26:09;;;;;;;3.92;1.40;;;13.40;99.90;;;;;;5061356;28;20044;-48
2022/09/25 06:28:35;;;;;;;4.25;1.30;;;14.20;99.90;;;;;;5055120;28;20052;-48
2022/09/25 06:31:02;;;;;;;4.72;1.23;;;14.90;99.90;;;;;;5050896;28;20056;-47
2022/09/25 06:33:29;;;;;;;3.92;1.55;;;15.20;99.90;;;;;;5059377;28;20056;-49
2022/09/25 06:35:54;;;;;;;3.67;1.38;;;14.70;99.90;;;;;;5053297;28;20127;-47
2022/09/25 06:38:20;;;;;;;6.10;2.08;;;14.50;99.90;;;;;;5060946;28;20083;-49
2022/09/25 06:40:46;;;;;;;6.68;1.90;;;14.40;99.90;;;;;;5049080;28;20053;-52
2022/09/25 06:43:14;;;;;;;2.88;1.10;;;14.50;99.90;;;;;;5060222;28;20056;-52
2022/09/25 06:45:41;;;;;;;4.25;1.38;;;14.50;99.90;;;;;;5062691;28;20542;-49
2022/09/25 06:48:12;;;;;;;4.68;1.23;;;14.60;99.90;;;;;;5062260;28;20059;-50
2022/09/25 06:50:42;;;;;;;4.00;1.23;;;14.70;99.90;;;;;;5061580;28;20119;-49
2022/09/25 06:53:09;;;;;;;5.55;1.98;;;14.80;99.90;;;;;;5053560;28;20040;-48
2022/09/25 06:55:34;;;;;;;4.65;1.13;;;14.80;99.90;;;;;;5059635;28;20048;-49
2022/09/25 06:58:01;;;;;;;3.30;1.10;;;14.50;99.90;;;;;;5061519;28;20079;-51
2022/09/25 07:00:27;;;;;;;3.40;1.25;;;14.20;99.90;;;;;;5053737;28;20511;-50
2022/09/25 07:05:37;;;;;;;2.47;1.30;;;13.90;99.90;;;;;;5053985;28;20076;-48
2022/09/25 07:08:03;;;;;;;6.07;2.33;;;14.00;99.90;;;;;;5052914;28;20418;-50
2022/09/25 07:10:28;;;;;;;4.80;1.25;;;14.10;99.90;;;;;;5038853;28;20534;-50
2022/09/25 07:12:54;;;;;;;3.35;1.50;;;14.20;99.90;;;;;;5059959;28;20764;-53
2022/09/25 07:15:21;;;;;;;4.10;1.30;;;14.40;99.90;;;;;;5050069;28;20051;-49
2022/09/25 07:17:47;;;;;;;3.28;1.30;;;14.50;99.90;;;;;;5055458;28;20072;-50
2022/09/25 07:20:14;;;;;;;5.15;1.67;;;14.60;99.90;;;;;;5045944;28;20183;-49
2022/09/25 07:22:40;;;;;;;4.35;1.40;;;14.60;99.90;;;;;;5058118;28;20068;-51
2022/09/25 07:25:08;;;;;;;5.40;1.50;;;14.80;99.90;;;;;;5057183;28;20084;-50
2022/09/25 07:27:33;;;;;;;4.47;1.98;;;14.90;99.90;;;;;;5057731;28;20048;-49
2022/09/25 07:30:00;;;;;;;5.88;1.70;;;15.00;99.90;;;;;;5052064;28;20556;-51
2022/09/25 07:32:26;;;;;;;4.90;1.83;;;15.00;99.90;;;;;;5060259;28;20481;-50
2022/09/25 07:34:53;;;;;;;5.70;1.52;;;15.00;99.90;;;;;;5052043;28;20098;-51
2022/09/25 07:37:19;;;;;;;3.28;1.33;;;15.00;99.90;;;;;;5043366;28;20631;-50
2022/09/25 07:39:45;;;;;;;6.82;1.95;;;15.10;99.90;;;;;;5061579;28;20110;-48
2022/09/25 07:42:11;;;;;;;3.88;2.05;;;15.10;99.90;;;;;;5053330;28;20056;-52
2022/09/25 07:44:38;;;;;;;5.07;1.55;;;15.00;99.90;;;;;;5059756;28;20562;-49
2022/09/25 07:47:06;;;;;;;5.28;1.40;;;15.10;99.90;;;;;;5053644;28;20063;-49
2022/09/25 07:49:33;;;;;;;3.90;1.58;;;15.10;99.90;;;;;;5059682;28;20056;-49
2022/09/25 07:52:04;;;;;;;3.58;1.30;;;15.20;99.90;;;;;;5057124;28;20124;-53
2022/09/25 07:54:30;;;;;;;5.22;1.85;;;15.20;99.90;;;;;;5057270;28;20083;-51
2022/09/25 07:56:57;;;;;;;8.18;1.88;;;15.30;99.90;;;;;;5033206;28;20552;-53
2022/09/25 07:59:23;;;;;;;5.32;1.60;;;15.30;99.90;;;;;;5053696;28;20052;-52
2022/09/25 08:01:48;;;;;;;7.28;1.65;;;15.40;99.90;;;;;;5030580;28;20053;-54
2022/09/25 08:04:14;;;;;;;4.15;1.52;;;15.50;99.90;;;;;;5051149;28;20136;-52
2022/09/25 08:06:40;;;;;;;4.68;1.60;;;15.60;99.90;;;;;;5054370;28;20501;-50
2022/09/25 08:09:05;;;;;;;5.32;1.58;;;15.40;99.90;;;;;;5050137;28;20304;-53
2022/09/25 08:11:33;;;;;;;6.22;1.60;;;15.30;99.90;;;;;;5035966;28;20151;-53
2022/09/25 08:13:59;;;;;;;4.85;2.17;;;15.30;99.90;;;;;;5043358;28;20052;-50
2022/09/25 08:16:24;;;;;;;5.45;2.10;;;15.30;99.90;;;;;;5059513;28;20047;-52
2022/09/25 08:18:52;;;;;;;5.75;1.35;;;15.30;99.90;;;;;;5035423;28;20064;-50
2022/09/25 08:21:23;;;;;;;6.07;1.40;;;15.40;99.90;;;;;;5054331;28;20045;-52
2022/09/25 08:23:51;;;;;;;5.65;1.60;;;15.60;99.90;;;;;;5057886;28;20056;-54
2022/09/25 08:26:18;;;;;;;5.78;1.45;;;15.70;99.90;;;;;;5058977;28;20143;-54
2022/09/25 08:28:44;;;;;;;4.80;1.35;;;15.80;99.90;;;;;;5057186;28;20048;-53
2022/09/25 08:31:10;;;;;;;4.13;1.30;;;15.80;99.90;;;;;;5035310;28;20044;-53
2022/09/25 08:33:36;;;;;;;6.32;1.70;;;15.80;99.90;;;;;;5056150;28;20041;-53
2022/09/25 08:36:04;;;;;;;7.55;1.75;;;15.90;99.90;;;;;;5055805;28;20049;-55
2022/09/25 08:52:10;;;;;;;5.43;1.35;;;16.40;99.90;;;;;;5052746;28;20088;-53
2022/09/25 08:54:36;;;;;;;3.47;1.30;;;16.40;99.90;;;;;;5051060;28;20045;-53
2022/09/25 08:57:11;;;;;;;5.75;1.40;;;16.40;99.90;;;;;;5038826;28;20087;-52
2022/09/25 08:59:43;;;;;;;4.68;1.25;;;16.40;99.90;;;;;;5059694;28;20486;-54
2022/09/25 09:02:12;;;;;;;5.03;1.33;;;16.60;99.90;;;;;;5050262;28;20462;-52
2022/09/25 09:04:46;;;;;;;6.22;1.33;;;17.00;99.90;;;;;;5051053;28;20048;-53
2022/09/25 09:07:37;;;;;;;4.90;1.27;;;17.40;99.90;;;;;;5030182;28;20503;-54
2022/09/25 09:10:24;;;;;;;4.72;1.48;;;17.60;99.90;;;;;;5042381;28;20049;-55
2022/09/25 09:12:58;;;;;;;5.05;1.65;;;17.50;99.90;;;;;;5034595;28;20048;-54
2022/09/25 09:15:35;;;;;;;5.05;1.40;;;17.20;99.90;;;;;;5037227;28;20073;-54
2022/09/25 09:18:24;;;;;;;5.88;1.30;;;16.90;99.90;;;;;;5037425;28;20147;-51
2022/09/25 09:20:55;;;;;;;4.28;1.58;;;16.60;99.90;;;;;;5034801;28;20475;-55
2022/09/25 09:23:24;;;;;;;8.10;1.40;;;16.30;99.90;;;;;;5052689;28;20040;-56
2022/09/25 09:26:04;;;;;;;6.18;1.38;;;16.00;99.90;;;;;;5049874;28;20052;-54
2022/09/25 09:28:42;;;;;;;6.07;1.58;;;15.90;99.90;;;;;;5051322;28;20526;-52
2022/09/25 09:31:48;;;;;;;6.30;1.10;;;15.70;99.90;;;;;;5049858;28;20054;-54
2022/09/25 09:34:56;;;;;;;4.88;1.40;;;15.60;99.90;;;;;;5045044;28;20053;-52
2022/09/25 09:37:50;;;;;;;3.72;1.10;;;15.50;99.90;;;;;;5045133;28;20049;-54
2022/09/25 09:40:25;;;;;;;4.90;1.27;;;15.40;99.90;;;;;;5048067;28;20051;-53
2022/09/25 09:43:18;;;;;;;4.63;1.00;;;15.40;99.90;;;;;;5056701;28;20086;-52
2022/09/25 09:45:55;;;;;;;3.13;1.08;;;15.60;99.90;;;;;;5056526;28;20152;-54
2022/09/25 09:48:59;;;;;;;7.72;1.20;;;16.00;99.90;;;;;;5041582;28;20064;-54
2022/09/25 09:51:42;;;;;;;5.32;1.13;;;16.40;99.90;;;;;;5038240;28;20110;-53
2022/09/25 09:54:14;;;;;;;3.28;1.15;;;16.70;99.90;;;;;;5051772;28;20056;-56
2022/09/25 09:56:46;;;;;;;6.00;1.25;;;16.90;99.90;;;;;;5052679;28;20051;-55
2022/09/25 09:59:45;;;;;;;3.83;1.52;;;17.10;99.90;;;;;;5022512;28;20047;-55
2022/09/25 10:02:30;;;;;;;6.30;1.10;;;17.20;99.90;;;;;;5042992;28;20048;-55
2022/09/25 10:05:02;;;;;;;4.97;1.05;;;17.40;99.90;;;;;;5042098;28;20131;-52
2022/09/25 10:07:32;;;;;;;4.68;1.10;;;17.40;99.90;;;;;;5059760;28;20052;-55
2022/09/25 10:09:59;;;;;;;5.30;1.25;;;17.60;99.90;;;;;;5042212;28;20048;-57
2022/09/25 10:12:32;;;;;;;4.05;1.10;;;17.90;99.90;;;;;;5041604;28;20083;-54
2022/09/25 10:15:03;;;;;;;8.60;1.27;;;17.80;99.90;;;;;;5056865;28;20056;-55
2022/09/25 10:17:29;;;;;;;3.33;1.00;;;18.00;99.90;;;;;;5036169;28;20466;-55
2022/09/25 10:20:16;;;;;;;1.95;0.70;;;18.20;99.90;;;;;;5041150;28;20106;-56
2022/09/25 10:22:45;;;;;;;5.32;1.08;;;18.20;99.90;;;;;;5058856;28;20051;-55
2022/09/25 10:25:11;;;;;;;3.75;1.13;;;17.90;99.90;;;;;;5039858;28;20052;-54
2022/09/25 10:27:47;;;;;;;4.70;1.10;;;17.50;99.90;;;;;;5055345;28;20044;-55
2022/09/25 10:30:19;;;;;;;4.85;1.05;;;17.30;99.90;;;;;;5037777;28;20060;-53
2022/09/25 10:33:06;;;;;;;5.00;0.90;;;17.20;99.90;;;;;;5052203;28;20052;-54
2022/09/25 10:35:38;;;;;;;4.03;1.05;;;17.30;99.90;;;;;;5046757;28;20052;-54
2022/09/25 10:38:16;;;;;;;3.25;0.80;;;17.20;99.90;;;;;;5048452;28;20049;-55
2022/09/25 10:40:46;;;;;;;4.40;1.00;;;17.20;99.90;;;;;;5047181;28;20531;-54
2022/09/25 10:43:19;;;;;;;3.17;1.20;;;17.20;99.90;;;;;;5050330;28;20055;-54
2022/09/25 10:45:53;;;;;;;3.90;1.05;;;17.00;99.90;;;;;;5036751;28;20113;-53
2022/09/25 10:51:20;;;;;;;3.30;0.90;;;17.40;99.90;;;;;;5049315;28;20059;-55
2022/09/25 10:54:14;;;;;;;2.78;0.95;;;17.40;99.90;;;;;;5051477;28;20044;-54
2022/09/25 10:56:41;;;;;;;4.20;1.17;;;17.30;99.90;;;;;;5032125;28;20059;-54
2022/09/25 10:59:19;;;;;;;5.93;1.08;;;17.10;99.90;;;;;;5033815;28;20602;-54
2022/09/25 11:01:50;;;;;;;2.55;1.10;;;17.00;99.90;;;;;;5050255;28;20056;-54
2022/09/25 11:04:30;;;;;;;2.13;0.88;;;16.80;99.90;;;;;;5049625;28;20091;-55
2022/09/25 11:07:14;;;;;;;4.25;1.20;;;16.70;99.90;;;;;;5053478;28;20052;-53
2022/09/25 11:09:43;;;;;;;5.65;1.27;;;16.70;99.90;;;;;;5047905;28;20053;-53
2022/09/25 11:12:19;;;;;;;4.78;1.10;;;16.70;99.90;;;;;;5051407;28;20044;-55
2022/09/25 11:14:56;;;;;;;3.78;1.10;;;16.80;99.90;;;;;;5039696;28;20049;-52
2022/09/25 11:17:40;;;;;;;2.63;0.77;;;17.00;99.90;;;;;;5056750;28;20061;-58
2022/09/25 11:20:16;;;;;;;3.05;0.80;;;16.70;99.90;;;;;;5045002;28;20045;-53
2022/09/25 11:23:20;;;;;;;0.90;0.60;;;15.90;99.90;;;;;;5026695;28;20566;-55
2022/09/25 11:25:46;;;;;;;;;;;15.40;99.90;;;;;;5027663;28;20048;-53
2022/09/25 11:28:23;;;;;;;2.00;0.85;;;15.10;99.90;;;;;;5044893;28;19925;-54
2022/09/25 11:31:02;;;;;;;3.72;1.30;;;15.00;99.90;;;;;;5044032;28;20123;-55
2022/09/25 11:33:46;;;;;;;2.95;0.77;;;15.00;99.90;;;;;;5043032;28;20511;-53
2022/09/25 11:36:21;;;;;;;2.17;0.70;;;15.00;99.90;;;;;;5043183;28;20072;-53
2022/09/25 11:42:26;;;;;;;2.63;0.90;;;15.10;99.90;;;;;;4980706;28;20225;-53
2022/09/25 11:45:25;;;;;;;1.65;0.70;;;15.10;99.90;;;;;;4981243;28;20512;-55
2022/09/25 11:48:12;;;;;;;4.45;0.93;;;15.20;99.90;;;;;;4980649;28;20050;-55
2022/09/25 11:50:57;;;;;;;5.13;0.90;;;15.40;99.90;;;;;;4981425;28;20062;-54
2022/09/25 11:54:12;;;;;;;3.03;0.98;;;15.50;99.90;;;;;;4980279;28;20108;-54
2022/09/25 11:56:53;;;;;;;2.67;0.80;;;15.60;99.90;;;;;;4980684;28;20153;-54
2022/09/25 11:59:58;;;;;;;2.80;0.90;;;15.80;99.90;;;;;;4980629;28;20145;-51
2022/09/25 12:02:48;;;;;;;4.53;0.88;;;15.90;99.90;;;;;;4925046;29;20063;-54
2022/09/25 12:05:38;;;;;;;4.82;1.38;;;16.00;99.90;;;;;;4941883;29;20063;-50
2022/09/25 12:08:12;;;;;;;5.35;1.48;;;15.90;99.90;;;;;;4958598;28;20062;-51
2022/09/25 12:11:15;;;;;;;5.32;1.30;;;15.90;99.90;;;;;;4961197;28;20051;-52
2022/09/25 12:14:42;;;;;;;2.92;0.85;;;16.00;99.90;;;;;;4959986;28;20058;-54
2022/09/25 12:17:38;;;;;;;2.35;0.95;;;15.90;99.90;;;;;;4902552;29;20697;-57
2022/09/25 12:20:15;;;;;;;4.90;1.25;;;15.90;99.90;;;;;;4931202;28;20058;-54
2022/09/25 12:22:53;;;;;;;4.22;1.05;;;15.90;99.90;;;;;;4913205;28;20063;-53
2022/09/25 12:25:51;;;;;;;3.78;1.33;;;16.10;99.90;;;;;;4928963;29;20657;-53
2022/09/25 12:29:09;;;;;;;3.22;0.60;;;16.30;99.90;;;;;;4933740;28;20063;-54
2022/09/25 12:31:59;;;;;;;6.40;1.05;;;16.40;99.90;;;;;;4903480;29;20082;-53
2022/09/25 12:34:39;;;;;;;2.03;0.63;;;16.60;99.90;;;;;;4907647;29;20071;-53
2022/09/25 12:37:36;;;;;;;4.43;1.00;;;16.90;99.90;;;;;;4910356;29;20091;-56
2022/09/25 12:40:10;;;;;;;2.75;1.00;;;16.90;99.90;;;;;;4892849;29;20063;-55
2022/09/25 12:42:47;;;;;;;3.17;0.60;;;17.00;99.90;;;;;;4894345;29;20056;-56
2022/09/25 12:45:26;;;;;;;3.35;0.80;;;17.00;99.90;;;;;;4878638;29;20507;-55
2022/09/25 12:48:13;;;;;;;1.95;0.80;;;16.90;99.90;;;;;;4948898;28;20097;-55
2022/09/25 12:50:49;;;;;;;4.18;0.85;;;16.90;99.90;;;;;;4961669;28;20056;-52
2022/09/25 12:53:40;;;;;;;4.25;0.85;;;16.80;99.90;;;;;;4966299;28;20581;-50
2022/09/25 12:56:40;;;;;;;2.95;0.73;;;16.80;99.90;;;;;;4960223;28;20055;-54
2022/09/25 12:59:12;;;;;;;2.92;0.70;;;16.90;99.90;;;;;;4978958;28;20050;-54
2022/09/25 13:01:41;;;;;;;5.13;1.27;;;16.90;99.90;;;;;;4984718;28;20583;-54
2022/09/25 13:04:51;;;;;;;2.35;0.80;;;16.70;99.90;;;;;;4985339;28;20158;-54
2022/09/25 13:07:40;;;;;;;5.47;1.13;;;16.90;99.90;;;;;;4952099;28;20240;-55
2022/09/25 13:10:41;;;;;;;3.63;0.80;;;16.70;99.90;;;;;;4956590;28;20050;-55
2022/09/25 13:13:28;;;;;;;3.08;1.00;;;16.60;99.90;;;;;;4977994;28;20137;-55
2022/09/25 13:15:57;;;;;;;3.03;1.00;;;16.70;99.90;;;;;;4957951;28;20447;-53
2022/09/25 13:18:26;;;;;;;2.90;1.00;;;16.90;99.90;;;;;;4972470;28;20502;-54
2022/09/25 13:20:54;;;;;;;2.60;0.93;;;17.10;99.90;;;;;;4978674;28;20053;-54
2022/09/25 13:23:23;;;;;;;4.55;0.80;;;17.30;99.90;;;;;;4978782;28;20058;-54
2022/09/25 13:26:01;;;;;;;4.05;0.70;;;17.50;99.90;;;;;;4978231;28;20076;-54
2022/09/25 13:28:29;;;;;;;3.78;1.02;;;17.50;99.90;;;;;;4962068;28;20050;-53
2022/09/25 13:31:10;;;;;;;4.38;1.00;;;17.50;99.90;;;;;;4977566;28;20062;-51
2022/09/25 13:34:10;;;;;;;5.15;0.82;;;17.50;99.90;;;;;;4978525;28;20058;-54
2022/09/25 13:36:44;;;;;;;3.10;0.90;;;17.50;99.80;;;;;;4978558;28;20149;-54
2022/09/25 13:42:26;;;;;;;3.55;1.10;;;17.50;99.90;;;;;;4975162;28;20057;-55
2022/09/25 13:45:21;;;;;;;4.55;0.88;;;17.60;99.90;;;;;;5026588;28;20056;-57
2022/09/25 13:47:56;;;;;;;3.67;0.90;;;17.50;99.90;;;;;;5030092;28;20114;-53
2022/09/25 13:50:35;;;;;;;3.33;0.70;;;17.50;99.90;;;;;;5058164;28;20048;-53
2022/09/25 13:53:21;;;;;;;4.88;1.08;;;17.40;99.90;;;;;;5028620;28;20048;-54
2022/09/25 13:55:47;;;;;;;3.25;1.10;;;17.30;99.90;;;;;;5054589;28;20949;-52
2022/09/25 13:58:17;;;;;;;2.50;0.77;;;17.10;99.90;;;;;;5052842;28;20048;-55
2022/09/25 14:00:52;;;;;;;5.82;1.08;;;16.90;99.90;;;;;;5054736;28;20049;-56
2022/09/25 14:03:38;;;;;;;3.72;0.93;;;16.80;99.90;;;;;;5033947;28;20186;-55